Terminal Aerodrome Forecast
Issued by NWS Anchorage, AK

Home | Current Version | Previous Version | Text Only | Print | Product List | Glossary On
Versions: 1 2 3 4 5 6 7 8 9 10 11 12 13 14 15 16 17 18 19 20 21 22 23 24
000
FTAK31 PANC 250541
TAFANC
TAF
PANC 250541Z 2506/2612 VRB04KT P6SM -SHRA SCT035 OVC050
      TEMPO 2506/2509 5SM -SHRA BR BKN035
     FM260000 15013G22KT P6SM VCSH SCT035 BKN070 OVC090
     FM260600 16007KT P6SM VCSH SCT050 BKN080=

USA.gov is the U.S. government's official web portal to all federal, state and local government web resources and services.